createdAt,value
2019-05-23T00:02:33.611Z,55.22
2019-05-23T00:05:28.219Z,55.29
2019-05-23T00:07:59.161Z,55.42
2019-05-23T00:10:32.678Z,55.64
2019-05-23T00:13:13.712Z,55.71
2019-05-23T00:15:44.737Z,55.73
2019-05-23T00:18:15.314Z,55.87
2019-05-23T00:20:47.065Z,56.01
2019-05-23T00:23:17.631Z,56.06
2019-05-23T00:25:47.015Z,56.16
2019-05-23T00:28:16.831Z,56.22
2019-05-23T00:30:56.878Z,56.29
2019-05-23T00:33:30.566Z,56.32
2019-05-23T00:36:00.516Z,56.41
2019-05-23T00:38:29.561Z,56.53
2019-05-23T00:41:00.424Z,56.66
2019-05-23T00:43:29.591Z,56.78
2019-05-23T00:45:58.713Z,56.79
2019-05-23T00:48:28.586Z,56.82
2019-05-23T00:50:59.313Z,56.87
2019-05-23T00:53:28.792Z,56.99
2019-05-23T00:55:58.225Z,57.09
2019-05-23T00:58:27.307Z,57.17
2019-05-23T01:00:57.722Z,57.21
2019-05-23T01:03:29.628Z,57.24
2019-05-23T01:05:59.533Z,57.20
2019-05-23T01:08:30.528Z,57.17
2019-05-23T01:11:01.294Z,57.28
2019-05-23T01:13:30.481Z,57.41
2019-05-23T01:16:00.172Z,57.47
2019-05-23T01:18:29.310Z,57.54
2019-05-23T01:21:20.990Z,57.61
2019-05-23T01:23:59.374Z,57.61
2019-05-23T01:26:29.258Z,57.69
2019-05-23T01:28:58.373Z,57.79
2019-05-23T01:31:34.011Z,57.89
2019-05-23T01:34:04.611Z,58.01
2019-05-23T01:36:35.840Z,57.88
2019-05-23T01:39:09.988Z,57.95
2019-05-23T01:41:39.674Z,57.96
2019-05-23T01:44:10.372Z,57.89
2019-05-23T01:46:41.483Z,57.87
2019-05-23T01:49:12.216Z,57.87
2019-05-23T01:51:41.532Z,57.90
2019-05-23T01:54:11.902Z,57.97
2019-05-23T01:56:41.181Z,58.01
2019-05-23T01:59:10.708Z,58.21
2019-05-23T02:01:40.621Z,58.37
2019-05-23T02:04:10.198Z,58.34
2019-05-23T02:06:39.280Z,58.33
2019-05-23T02:09:09.374Z,58.39
2019-05-23T02:11:39.126Z,58.35
2019-05-23T02:14:08.709Z,58.35
2019-05-23T02:16:37.987Z,58.42
2019-05-23T02:19:07.167Z,58.58
2019-05-23T02:21:36.294Z,58.58
2019-05-23T02:24:07.215Z,58.47
2019-05-23T02:26:37.458Z,58.39
2019-05-23T02:29:07.879Z,58.49
2019-05-23T02:31:37.017Z,58.52
2019-05-23T02:34:06.111Z,58.54
2019-05-23T02:36:35.506Z,58.64
2019-05-23T02:39:33.440Z,58.63
2019-05-23T02:42:13.233Z,58.60
2019-05-23T02:44:42.666Z,58.63
2019-05-23T02:47:29.808Z,58.64
2019-05-23T02:49:59.563Z,58.59
2019-05-23T02:52:42.417Z,58.76
2019-05-23T02:55:16.136Z,58.76
2019-05-23T02:57:47.343Z,58.79
2019-05-23T03:00:55.304Z,58.85
2019-05-23T03:03:25.838Z,58.87
2019-05-23T03:05:56.561Z,58.88
2019-05-23T03:08:27.063Z,58.97
2019-05-23T03:11:05.203Z,59.04
2019-05-23T03:13:34.647Z,59.06
2019-05-23T03:16:05.340Z,59.09
2019-05-23T03:18:41.554Z,59.09
2019-05-23T03:29:16.069Z,59.02
2019-05-23T03:32:25.350Z,59.07
2019-05-23T03:35:36.033Z,59.13
2019-05-23T03:38:06.947Z,59.19
2019-05-23T03:40:46.664Z,59.13
2019-05-23T03:43:56.430Z,59.28
2019-05-23T03:46:30.465Z,59.31
2019-05-23T03:49:03.384Z,59.27
2019-05-23T03:51:36.918Z,59.29
2019-05-23T03:54:06.628Z,59.32
2019-05-23T03:56:37.891Z,59.28
2019-05-23T03:59:15.320Z,59.34
2019-05-23T04:01:49.175Z,59.32
2019-05-23T04:04:20.825Z,59.24
2019-05-23T04:06:51.501Z,59.16
2019-05-23T04:09:21.519Z,59.08
2019-05-23T04:11:51.669Z,59.05
2019-05-23T04:14:21.669Z,58.91
2019-05-23T04:16:52.366Z,58.95
2019-05-23T04:19:22.843Z,58.88
2019-05-23T04:21:52.872Z,58.81
2019-05-23T04:24:22.627Z,58.80
2019-05-23T04:26:52.362Z,58.59
2019-05-23T04:29:22.511Z,58.58
2019-05-23T04:32:07.388Z,58.37
2019-05-23T04:34:23.599Z,58.22
2019-05-23T04:36:53.524Z,58.06
2019-05-23T04:39:23.130Z,57.90
2019-05-23T04:41:53.356Z,57.97
2019-05-23T04:44:29.591Z,57.86
2019-05-23T04:46:59.232Z,57.87
2019-05-23T04:49:29.442Z,57.60
2019-05-23T04:51:59.238Z,57.52
2019-05-23T04:54:29.160Z,57.60
2019-05-23T04:56:58.798Z,57.32
2019-05-23T04:59:29.859Z,57.13
2019-05-23T05:01:59.973Z,57.06
2019-05-23T05:04:32.451Z,57.20
2019-05-23T05:07:02.143Z,57.07
2019-05-23T05:09:32.478Z,57.00
2019-05-23T05:12:02.208Z,56.67
2019-05-23T05:14:32.912Z,56.37
2019-05-23T05:17:03.230Z,56.31
2019-05-23T05:19:34.378Z,56.21
2019-05-23T05:22:05.484Z,56.12
2019-05-23T05:24:39.990Z,55.98
2019-05-23T05:27:08.008Z,56.03
2019-05-23T05:29:38.226Z,55.69
2019-05-23T05:32:07.874Z,55.44
2019-05-23T05:34:37.409Z,55.11
2019-05-23T05:37:07.007Z,54.83
2019-05-23T05:39:37.003Z,54.72
2019-05-23T05:42:09.201Z,54.48
2019-05-23T05:44:40.093Z,54.19
2019-05-23T05:47:11.106Z,54.06
2019-05-23T05:49:42.276Z,53.43
2019-05-23T05:52:12.798Z,52.90
2019-05-23T06:00:28.397Z,50.65
2019-05-23T06:03:04.625Z,49.72
2019-05-23T06:05:37.910Z,48.96
2019-05-23T06:08:08.219Z,48.04
2019-05-23T06:10:37.420Z,47.12
2019-05-23T06:13:09.214Z,46.60
2019-05-23T06:15:42.010Z,45.85
2019-05-23T06:18:11.339Z,44.55
2019-05-23T06:20:41.153Z,43.87
2019-05-23T06:23:11.240Z,43.35
2019-05-23T06:25:41.117Z,42.41
2019-05-23T06:28:11.003Z,42.03
2019-05-23T06:30:40.488Z,41.54
2019-05-23T06:33:22.449Z,41.01
2019-05-23T06:35:41.478Z,40.55
2019-05-23T06:38:11.655Z,39.33
2019-05-23T06:40:41.714Z,38.76
2019-05-23T06:43:10.833Z,38.21
2019-05-23T06:45:41.983Z,37.53
2019-05-23T06:48:11.970Z,36.92
2019-05-23T06:50:41.117Z,36.47
2019-05-23T06:53:10.767Z,35.05
2019-05-23T06:59:07.372Z,34.19
2019-05-23T07:01:36.604Z,33.51
2019-05-23T07:04:06.083Z,33.55
2019-05-23T07:06:35.188Z,33.04
2019-05-23T07:09:13.864Z,32.02
2019-05-23T07:11:43.449Z,31.42
2019-05-23T07:14:13.250Z,30.90
2019-05-23T07:16:42.353Z,30.45
2019-05-23T07:19:11.566Z,29.60
2019-05-23T07:21:40.914Z,28.75
2019-05-23T07:24:10.214Z,27.99
2019-05-23T07:26:39.378Z,27.69
2019-05-23T07:29:08.926Z,27.25
2019-05-23T07:31:38.105Z,26.68
2019-05-23T07:34:07.230Z,25.66
2019-05-23T07:36:36.723Z,24.59
2019-05-23T07:39:11.356Z,24.12
2019-05-23T07:41:39.829Z,23.23
2019-05-23T07:44:10.113Z,22.16
2019-05-23T07:46:39.831Z,21.93
2019-05-23T07:49:08.976Z,21.04
2019-05-23T07:51:38.194Z,20.40
2019-05-23T07:54:24.300Z,20.87
2019-05-23T07:56:53.865Z,20.69
2019-05-23T07:59:22.934Z,19.60
2019-05-23T08:01:58.895Z,19.16
2019-05-23T08:04:29.142Z,18.90
2019-05-23T08:06:58.164Z,18.90
2019-05-23T08:09:27.992Z,18.84
2019-05-23T08:11:57.152Z,18.16
2019-05-23T08:14:26.334Z,18.45
2019-05-23T08:16:55.767Z,18.52
2019-05-23T08:19:25.143Z,18.71
2019-05-23T08:21:54.361Z,18.59
2019-05-23T08:24:24.429Z,18.65
2019-05-23T08:26:55.840Z,17.70
2019-05-23T08:29:26.848Z,17.50
2019-05-23T08:31:56.212Z,16.99
2019-05-23T08:34:40.527Z,17.00
2019-05-23T08:36:57.420Z,16.51
2019-05-23T08:39:27.833Z,16.27
2019-05-23T08:41:57.179Z,16.47
2019-05-23T08:44:26.378Z,15.48
2019-05-23T08:46:55.699Z,15.00
2019-05-23T08:49:25.356Z,15.33
2019-05-23T08:51:54.635Z,15.25
2019-05-23T08:54:23.719Z,14.99
2019-05-23T08:56:52.958Z,15.01
2019-05-23T08:59:22.246Z,14.86
2019-05-23T09:01:51.342Z,14.21
2019-05-23T09:04:20.989Z,14.01
2019-05-23T09:06:50.279Z,13.69
2019-05-23T09:09:29.573Z,13.40
2019-05-23T09:11:50.519Z,14.07
2019-05-23T09:14:23.371Z,14.41
2019-05-23T09:16:52.723Z,13.80
2019-05-23T09:19:26.346Z,13.59
2019-05-23T09:21:58.280Z,13.35
2019-05-23T09:24:27.558Z,13.04
2019-05-23T09:27:15.876Z,13.27
2019-05-23T09:29:45.550Z,12.54
2019-05-23T09:32:14.704Z,12.93
2019-05-23T09:34:43.741Z,12.44
2019-05-23T09:37:13.752Z,11.83
2019-05-23T09:39:44.327Z,11.50
2019-05-23T09:42:13.394Z,11.50
2019-05-23T09:44:42.474Z,11.59
2019-05-23T09:47:11.613Z,11.33
2019-05-23T09:49:40.675Z,11.01
2019-05-23T09:52:10.839Z,10.93
2019-05-23T09:54:40.257Z,10.82
2019-05-23T09:57:09.433Z,10.28
2019-05-23T09:59:38.542Z,9.66
2019-05-23T10:02:07.884Z,9.90
2019-05-23T10:04:37.006Z,10.04
2019-05-23T10:07:06.124Z,9.91
2019-05-23T10:09:35.184Z,9.96
2019-05-23T10:12:04.287Z,9.75
2019-05-23T10:14:35.129Z,9.58
2019-05-23T10:17:04.228Z,9.23
2019-05-23T10:19:33.353Z,8.97
2019-05-23T10:22:02.399Z,8.80
2019-05-23T10:24:31.441Z,9.04
2019-05-23T10:27:00.512Z,8.68
2019-05-23T10:29:29.578Z,8.65
2019-05-23T10:31:58.579Z,8.74
2019-05-23T10:34:28.231Z,8.88
2019-05-23T10:36:57.342Z,9.33
2019-05-23T10:39:26.967Z,9.65
2019-05-23T10:41:56.043Z,9.88
2019-05-23T10:44:25.123Z,10.11
2019-05-23T10:46:55.884Z,10.72
2019-05-23T10:49:25.043Z,10.58
2019-05-23T10:51:54.090Z,11.04
2019-05-23T10:54:23.232Z,10.59
2019-05-23T10:56:52.330Z,10.22
2019-05-23T10:59:21.484Z,10.48
2019-05-23T11:01:50.799Z,10.74
2019-05-23T11:04:20.019Z,11.39
2019-05-23T11:06:49.113Z,10.87
2019-05-23T11:09:36.136Z,10.91
2019-05-23T11:11:50.928Z,11.48
2019-05-23T11:14:20.097Z,11.96
2019-05-23T11:16:49.652Z,12.36
2019-05-23T11:19:19.000Z,12.53
2019-05-23T11:21:48.234Z,12.37
2019-05-23T11:24:18.181Z,12.28
2019-05-23T11:26:47.249Z,12.37
2019-05-23T11:29:16.313Z,12.31
2019-05-23T11:31:45.988Z,13.39
2019-05-23T11:34:15.110Z,13.40
2019-05-23T11:36:44.171Z,13.78
2019-05-23T11:39:14.600Z,14.26
2019-05-23T11:41:43.744Z,14.29
2019-05-23T11:44:12.879Z,14.80
2019-05-23T11:46:42.036Z,15.48
2019-05-23T11:49:11.151Z,15.80
2019-05-23T11:51:40.264Z,16.32
2019-05-23T11:54:10.125Z,16.28
2019-05-23T11:56:40.081Z,16.63
2019-05-23T11:59:09.419Z,16.65
2019-05-23T12:02:09.366Z,17.24
2019-05-23T12:04:40.885Z,17.36
2019-05-23T12:07:17.244Z,17.06
2019-05-23T12:09:46.380Z,17.02
2019-05-23T12:12:15.361Z,17.52
2019-05-23T12:14:44.426Z,17.33
2019-05-23T12:17:15.160Z,17.61
2019-05-23T12:19:44.362Z,17.85
2019-05-23T12:22:13.613Z,17.93
2019-05-23T12:24:42.638Z,18.21
2019-05-23T12:27:12.178Z,17.86
2019-05-23T12:29:41.306Z,17.95
2019-05-23T12:32:12.109Z,18.27
2019-05-23T12:34:41.274Z,18.58
2019-05-23T12:37:19.870Z,18.87
2019-05-23T12:39:41.123Z,18.81
2019-05-23T12:42:10.166Z,18.91
2019-05-23T12:44:39.282Z,18.89
2019-05-23T12:47:12.753Z,19.12
2019-05-23T12:49:52.447Z,19.48
2019-05-23T12:52:21.665Z,20.24
2019-05-23T12:54:50.903Z,20.52
2019-05-23T12:57:21.877Z,20.45
2019-05-23T12:59:51.273Z,20.11
2019-05-23T13:02:25.185Z,20.35
2019-05-23T13:04:54.280Z,20.34
2019-05-23T13:07:35.851Z,20.47
2019-05-23T13:09:54.151Z,20.40
2019-05-23T13:12:23.468Z,20.55
2019-05-23T13:14:55.904Z,20.68
2019-05-23T13:17:23.273Z,20.78
2019-05-23T13:19:52.311Z,20.77
2019-05-23T13:22:21.997Z,20.83
2019-05-23T13:24:53.294Z,21.22
2019-05-23T13:27:21.929Z,20.93
2019-05-23T13:29:50.799Z,20.99
2019-05-23T13:32:19.697Z,21.14
2019-05-23T13:34:48.707Z,21.02
2019-05-23T13:37:18.063Z,20.83
2019-05-23T13:39:47.090Z,21.03
2019-05-23T13:42:16.153Z,21.25
2019-05-23T13:44:45.534Z,21.49
2019-05-23T13:47:14.542Z,21.25
2019-05-23T13:49:43.923Z,21.47
2019-05-23T13:52:12.861Z,20.73
2019-05-23T13:54:41.798Z,20.27
2019-05-23T13:57:11.516Z,20.06
2019-05-23T13:59:40.870Z,20.07
2019-05-23T14:02:10.022Z,20.53
2019-05-23T14:04:39.326Z,20.95
2019-05-23T14:07:09.951Z,21.13
2019-05-23T14:09:39.596Z,20.78
2019-05-23T14:12:20.858Z,20.44
2019-05-23T14:14:39.338Z,20.52
2019-05-23T14:17:36.493Z,20.49
2019-05-23T14:20:06.647Z,20.48
2019-05-23T14:22:39.367Z,20.01
2019-05-23T14:25:08.386Z,19.49
2019-05-23T14:27:54.654Z,19.60
2019-05-23T14:30:45.921Z,19.86
2019-05-23T14:33:43.182Z,20.55
2019-05-23T14:36:19.024Z,20.70
2019-05-23T14:38:48.049Z,20.75
2019-05-23T14:41:17.115Z,21.03
2019-05-23T14:43:48.650Z,21.20
2019-05-23T14:47:20.980Z,21.32
2019-05-23T14:50:15.581Z,21.23
2019-05-23T14:52:45.301Z,21.21
2019-05-23T14:55:14.450Z,21.14
2019-05-23T14:57:43.587Z,21.30
2019-05-23T15:00:12.762Z,21.49
2019-05-23T15:02:42.020Z,21.63
2019-05-23T15:05:11.281Z,21.99
2019-05-23T15:07:40.328Z,21.88
2019-05-23T15:10:10.418Z,22.26
2019-05-23T15:12:39.508Z,21.94
2019-05-23T15:15:08.543Z,21.99
2019-05-23T15:17:37.599Z,22.02
2019-05-23T15:20:07.198Z,21.99
2019-05-23T15:22:36.325Z,21.79
2019-05-23T15:25:06.027Z,21.17
2019-05-23T15:27:35.100Z,21.43
2019-05-23T15:30:04.190Z,21.36
2019-05-23T15:32:33.278Z,20.80
2019-05-23T15:35:02.423Z,20.69
2019-05-23T15:37:31.514Z,20.56
2019-05-23T15:40:00.549Z,20.17
2019-05-23T15:42:30.056Z,20.12
2019-05-23T15:44:59.151Z,20.25
2019-05-23T15:47:32.006Z,20.18
2019-05-23T15:50:06.244Z,20.23
2019-05-23T15:52:43.106Z,20.45
2019-05-23T15:55:26.780Z,20.59
2019-05-23T15:58:07.404Z,20.70
2019-05-23T16:01:04.215Z,20.74
2019-05-23T16:03:40.557Z,20.86
2019-05-23T16:06:11.122Z,21.10
2019-05-23T16:08:40.126Z,21.24
2019-05-23T16:11:09.243Z,21.55
2019-05-23T16:13:38.264Z,21.89
2019-05-23T16:16:07.258Z,21.60
2019-05-23T16:18:36.329Z,21.54
2019-05-23T16:21:05.425Z,21.58
2019-05-23T16:23:34.459Z,21.76
2019-05-23T16:26:03.516Z,21.69
2019-05-23T16:28:32.531Z,21.94
2019-05-23T16:31:01.681Z,22.06
2019-05-23T16:33:30.739Z,21.84
2019-05-23T16:35:59.969Z,22.14
2019-05-23T16:38:29.009Z,21.98
2019-05-23T16:40:58.099Z,21.92
2019-05-23T16:43:27.115Z,22.04
2019-05-23T16:45:56.127Z,22.33
2019-05-23T16:48:25.174Z,22.34
2019-05-23T16:50:54.149Z,22.49
2019-05-23T16:53:24.988Z,22.49
2019-05-23T16:56:00.098Z,23.37
2019-05-23T16:58:51.206Z,23.22
2019-05-23T17:01:34.011Z,23.22
2019-05-23T17:04:08.982Z,23.34
2019-05-23T17:06:44.633Z,23.68
2019-05-23T17:09:38.810Z,23.86
2019-05-23T17:12:25.531Z,23.83
2019-05-23T17:14:59.272Z,23.77
2019-05-23T17:18:01.347Z,23.94
2019-05-23T17:20:33.879Z,23.33
2019-05-23T17:23:16.130Z,23.33
2019-05-23T17:25:53.321Z,24.01
2019-05-23T17:28:32.173Z,23.96
2019-05-23T17:31:03.807Z,24.02
2019-05-23T17:33:36.879Z,24.08
2019-05-23T17:36:04.122Z,23.82
2019-05-23T17:38:33.251Z,23.81
2019-05-23T17:41:02.517Z,23.65
2019-05-23T17:43:34.332Z,23.64
2019-05-23T17:46:03.205Z,23.69
2019-05-23T17:48:32.136Z,23.64
2019-05-23T17:51:01.168Z,23.69
2019-05-23T17:53:30.342Z,23.65
2019-05-23T17:55:59.659Z,23.53
2019-05-23T17:58:28.782Z,23.75
2019-05-23T18:00:58.201Z,23.81
2019-05-23T18:03:27.561Z,23.70
2019-05-23T18:05:56.947Z,24.00
2019-05-23T18:08:26.582Z,23.78
2019-05-23T18:10:56.048Z,23.38
2019-05-23T18:13:25.521Z,23.47
2019-05-23T18:15:55.528Z,23.33
2019-05-23T18:18:24.627Z,23.49
2019-05-23T18:20:53.653Z,23.53
2019-05-23T18:23:22.708Z,23.65
2019-05-23T18:25:52.020Z,23.76
2019-05-23T18:28:21.019Z,23.88
2019-05-23T18:31:00.894Z,23.79
2019-05-23T18:33:29.929Z,24.14
2019-05-23T18:35:59.010Z,24.27
2019-05-23T18:38:28.070Z,24.29
2019-05-23T18:41:03.155Z,24.78
2019-05-23T18:43:29.460Z,24.63
2019-05-23T18:46:01.433Z,24.63
2019-05-23T18:48:30.419Z,24.83
2019-05-23T18:50:59.573Z,25.45
2019-05-23T18:53:28.789Z,25.34
2019-05-23T18:55:57.761Z,25.46
2019-05-23T18:58:26.789Z,25.27
2019-05-23T19:01:03.475Z,25.84
2019-05-23T19:03:33.408Z,25.62
2019-05-23T19:06:02.376Z,25.64
2019-05-23T19:08:31.561Z,25.95
2019-05-23T19:11:00.712Z,26.24
2019-05-23T19:13:29.832Z,26.33
2019-05-23T19:15:58.813Z,26.57
2019-05-23T19:18:28.090Z,26.64
2019-05-23T19:20:58.077Z,26.77
2019-05-23T19:23:27.314Z,26.85
2019-05-23T19:25:56.592Z,27.12
2019-05-23T19:28:25.699Z,27.11
2019-05-23T19:30:54.906Z,27.18
2019-05-23T19:33:25.256Z,27.73
2019-05-23T19:35:54.873Z,27.76
2019-05-23T19:38:24.272Z,27.90
2019-05-23T19:40:53.510Z,28.36
2019-05-23T19:43:23.722Z,28.48
2019-05-23T19:45:52.913Z,28.79
2019-05-23T19:48:22.576Z,29.05
2019-05-23T19:50:51.748Z,29.62
2019-05-23T19:53:20.669Z,29.77
2019-05-23T19:55:50.250Z,29.78
2019-05-23T19:58:19.423Z,29.77
2019-05-23T20:00:48.500Z,29.79
2019-05-23T20:03:18.229Z,29.79
2019-05-23T20:05:48.006Z,30.02
2019-05-23T20:08:17.016Z,30.40
2019-05-23T20:10:46.155Z,30.72
2019-05-23T20:13:18.355Z,31.11
2019-05-23T20:15:46.575Z,31.35
2019-05-23T20:18:16.371Z,31.39
2019-05-23T20:20:45.380Z,31.59
2019-05-23T20:23:16.149Z,31.79
2019-05-23T20:25:45.181Z,31.77
2019-05-23T20:28:14.168Z,31.95
2019-05-23T20:30:53.019Z,32.38
2019-05-23T20:33:21.962Z,32.16
2019-05-23T20:35:51.076Z,32.14
2019-05-23T20:38:20.102Z,32.36
2019-05-23T20:40:49.069Z,32.06
2019-05-23T20:43:18.144Z,32.03
2019-05-23T20:45:47.160Z,32.02
2019-05-23T20:48:16.156Z,32.34
2019-05-23T20:50:45.225Z,32.48
2019-05-23T20:53:14.132Z,32.76
2019-05-23T20:55:43.419Z,32.99
2019-05-23T20:58:12.421Z,33.09
2019-05-23T21:01:03.479Z,32.68
2019-05-23T21:03:36.068Z,32.40
2019-05-23T21:06:05.879Z,32.67
2019-05-23T21:08:35.211Z,32.75
2019-05-23T21:11:04.257Z,33.27
2019-05-23T21:13:33.253Z,33.43
2019-05-23T21:16:02.204Z,33.70
2019-05-23T21:18:31.152Z,33.61
2019-05-23T21:21:00.193Z,33.60
2019-05-23T21:23:29.217Z,34.10
2019-05-23T21:26:06.633Z,34.72
2019-05-23T21:28:36.466Z,34.73
2019-05-23T21:31:09.836Z,34.91
2019-05-23T21:33:38.805Z,34.71
2019-05-23T21:36:07.813Z,34.92
2019-05-23T21:38:36.775Z,34.86
2019-05-23T21:41:05.862Z,34.89
2019-05-23T21:43:34.940Z,35.04
2019-05-23T21:46:04.124Z,35.23
2019-05-23T21:48:33.141Z,35.14
2019-05-23T21:51:02.157Z,35.09
2019-05-23T21:53:31.090Z,35.25
2019-05-23T21:56:00.110Z,35.13
2019-05-23T21:58:29.174Z,34.68
2019-05-23T22:01:23.899Z,34.77
2019-05-23T22:04:14.611Z,34.94
2019-05-23T22:07:02.638Z,34.43
2019-05-23T22:09:32.275Z,34.50
2019-05-23T22:12:01.699Z,34.70
2019-05-23T22:17:58.719Z,35.05
2019-05-23T22:20:27.769Z,35.50
2019-05-23T22:22:56.878Z,35.86
2019-05-23T22:25:33.061Z,35.80
2019-05-23T22:28:02.133Z,35.95
2019-05-23T22:30:31.422Z,36.08
2019-05-23T22:33:01.171Z,36.34
2019-05-23T22:35:30.209Z,36.43
2019-05-23T22:38:00.303Z,36.41
2019-05-23T22:40:29.447Z,36.48
2019-05-23T22:42:58.622Z,36.82
2019-05-23T22:45:28.432Z,36.80
2019-05-23T22:47:57.913Z,36.88
2019-05-23T22:50:27.180Z,37.01
2019-05-23T22:52:56.304Z,37.10
2019-05-23T22:55:25.463Z,37.27
2019-05-23T22:57:55.226Z,37.36
2019-05-23T23:00:31.657Z,37.30
2019-05-23T23:03:00.862Z,37.43
2019-05-23T23:05:29.933Z,37.69
2019-05-23T23:07:59.048Z,37.94
2019-05-23T23:10:28.880Z,38.39
2019-05-23T23:12:58.050Z,38.34
2019-05-23T23:15:28.382Z,38.58
2019-05-23T23:17:57.646Z,38.78
2019-05-23T23:20:26.783Z,38.88
2019-05-23T23:22:56.030Z,39.17
2019-05-23T23:25:25.089Z,39.33
2019-05-23T23:27:54.196Z,39.30
2019-05-23T23:30:26.411Z,39.42
2019-05-23T23:32:55.532Z,39.51
2019-05-23T23:35:24.666Z,39.82
2019-05-23T23:37:53.793Z,40.13
2019-05-23T23:40:22.876Z,40.49
2019-05-23T23:42:52.005Z,40.65
2019-05-23T23:45:39.071Z,40.87
2019-05-23T23:48:25.882Z,40.88
2019-05-23T23:51:12.200Z,41.07
2019-05-23T23:53:59.159Z,41.14
2019-05-23T23:56:46.268Z,41.28
2019-05-23T23:59:14.541Z,41.45
